Pagrindinis puslapis
METAR-TAF:

METAR-TAF

Oro uostai :

Fudžeira, Jungtiniai Arabų Emyratai

platuma: 25-06N, ilguma: 056-20E, Aukštis: 28 m

Dabartinis oras

Ataskaita buvo paskelbta 44 minutes, ne 04:00 UTC
Vėjas 6 kt iš Vakarų/Šiaurės Vakarų
Temperatūra 37°C
Drėgmė 17%
Slėgis 1002 hPa
Matomumas 10 km arba daugiau
nėra debesų žemiau 1500 m ir nėra kamuolinių lietaus debesų

METAR: OMFJ 140400Z 29006KT CAVOK 37/08 Q1002 A2960

Laikas: 08:44 (04:44 UTC)

Prognozė

Ataskaita buvo paskelbta 5 valandos ir 44 minutes, ne 23:00 UTC
Prognozė galioja nuo 14 metu 00 UTC su 15 metu 06 UTC
Vėjas 6 kt iš Vakarų/Šiaurės Vakarų
Matomumas: 8000 m
Tapsmas
nuo 14 metu 06 UTC su 14 metu 08 UTC
Vėjas 10 kt iš Rytų
Tapsmas
nuo 14 metu 14 UTC su 14 metu 16 UTC
Vėjas 3 kt nuo kintamojo kryptimis
Tapsmas
nuo 15 metu 00 UTC su 15 metu 02 UTC
Vėjas 5 kt iš Vakarų/Šiaurės Vakarų

TAF: OMFJ 132300Z 1400/1506 29006KT 8000 NSC BECMG 1406/1408 09010KT BECMG 1414/1416 VRB03KT BECMG 1500/1502 30005KT

Orai ataskaitas ir orų prognozės (METAR, TAF).

turimą stotys yra geltonos ir raudonos taškus žemėlapyje.

Perkelti pele per norėdami pamatyti stoties vardą.

Tada spustelėkite, norėdami matyti oro stebėjimo ir prognozės.

Norėdami pakeisti žemėlapį: spustelėkite ant žalios mygtukų su juodo kryžiaus žemyn,; žalią mygtuką su brūkšneliu, jei norite nutolinti; arba žalių rodyklių gretimoms žemėlapius.


METAR-TAF: